sensor_id;sensor_type;location;lat;lon;timestamp;pressure;altitude;pressure_sealevel;temperature;humidity
36242;BME280;22283;42.748;12.732;2022-11-12T00:00:27;99505.81;;;6.08;100.00
36242;BME280;22283;42.748;12.732;2022-11-12T00:05:47;99494.75;;;5.98;100.00
36242;BME280;22283;42.748;12.732;2022-11-12T00:11:07;99492.13;;;5.98;100.00
36242;BME280;22283;42.748;12.732;2022-11-12T00:16:26;99493.34;;;6.13;100.00
36242;BME280;22283;42.748;12.732;2022-11-12T00:21:45;99496.22;;;6.07;100.00
36242;BME280;22283;42.748;12.732;2022-11-12T00:27:04;99494.13;;;6.16;100.00
36242;BME280;22283;42.748;12.732;2022-11-12T00:32:24;99477.50;;;6.16;100.00
36242;BME280;22283;42.748;12.732;2022-11-12T00:37:43;99489.59;;;6.22;100.00
36242;BME280;22283;42.748;12.732;2022-11-12T00:43:02;99487.25;;;6.12;100.00
36242;BME280;22283;42.748;12.732;2022-11-12T00:48:22;99500.59;;;6.06;100.00
36242;BME280;22283;42.748;12.732;2022-11-12T00:53:41;99473.19;;;6.13;100.00
36242;BME280;22283;42.748;12.732;2022-11-12T00:59:00;99470.72;;;6.09;100.00
36242;BME280;22283;42.748;12.732;2022-11-12T01:04:19;99477.09;;;6.02;100.00
36242;BME280;22283;42.748;12.732;2022-11-12T01:09:39;99453.44;;;6.02;100.00
36242;BME280;22283;42.748;12.732;2022-11-12T01:14:58;99458.69;;;6.02;100.00
36242;BME280;22283;42.748;12.732;2022-11-12T01:20:17;99455.78;;;6.11;100.00
36242;BME280;22283;42.748;12.732;2022-11-12T01:25:37;99454.53;;;6.21;100.00
36242;BME280;22283;42.748;12.732;2022-11-12T01:30:56;99450.31;;;6.17;100.00
36242;BME280;22283;42.748;12.732;2022-11-12T01:36:16;99451.22;;;6.16;100.00
36242;BME280;22283;42.748;12.732;2022-11-12T01:41:37;99438.91;;;6.18;100.00
36242;BME280;22283;42.748;12.732;2022-11-12T01:46:58;99442.31;;;6.20;100.00
36242;BME280;22283;42.748;12.732;2022-11-12T01:52:30;99437.50;;;6.33;100.00
36242;BME280;22283;42.748;12.732;2022-11-12T01:57:58;99415.28;;;6.16;100.00
36242;BME280;22283;42.748;12.732;2022-11-12T02:03:23;99427.41;;;6.21;100.00
36242;BME280;22283;42.748;12.732;2022-11-12T02:08:43;99423.94;;;6.20;100.00
36242;BME280;22283;42.748;12.732;2022-11-12T02:14:02;99424.63;;;6.25;100.00
36242;BME280;22283;42.748;12.732;2022-11-12T02:19:23;99418.94;;;6.37;100.00
36242;BME280;22283;42.748;12.732;2022-11-12T02:24:42;99417.31;;;6.33;100.00
36242;BME280;22283;42.748;12.732;2022-11-12T02:30:01;99403.50;;;6.28;100.00
36242;BME280;22283;42.748;12.732;2022-11-12T02:35:21;99410.44;;;6.29;100.00
36242;BME280;22283;42.748;12.732;2022-11-12T02:40:40;99409.88;;;6.21;100.00
36242;BME280;22283;42.748;12.732;2022-11-12T02:46:00;99409.59;;;6.04;100.00
36242;BME280;22283;42.748;12.732;2022-11-12T02:51:19;99403.97;;;5.88;100.00
36242;BME280;22283;42.748;12.732;2022-11-12T02:56:38;99389.66;;;5.98;100.00
36242;BME280;22283;42.748;12.732;2022-11-12T03:01:57;99387.91;;;5.99;100.00
36242;BME280;22283;42.748;12.732;2022-11-12T03:07:16;99384.41;;;5.98;100.00
36242;BME280;22283;42.748;12.732;2022-11-12T03:12:36;99382.75;;;5.96;100.00
36242;BME280;22283;42.748;12.732;2022-11-12T03:17:58;99381.72;;;6.00;100.00
36242;BME280;22283;42.748;12.732;2022-11-12T03:23:18;99381.38;;;6.09;100.00
36242;BME280;22283;42.748;12.732;2022-11-12T03:28:37;99386.34;;;6.18;100.00
36242;BME280;22283;42.748;12.732;2022-11-12T03:33:56;99390.25;;;6.31;100.00
36242;BME280;22283;42.748;12.732;2022-11-12T03:39:15;99380.53;;;6.33;100.00
36242;BME280;22283;42.748;12.732;2022-11-12T03:44:34;99369.41;;;6.25;100.00
36242;BME280;22283;42.748;12.732;2022-11-12T03:49:53;99374.75;;;6.24;100.00
36242;BME280;22283;42.748;12.732;2022-11-12T03:55:14;99378.91;;;6.29;100.00
36242;BME280;22283;42.748;12.732;2022-11-12T04:00:34;99371.16;;;6.26;100.00
36242;BME280;22283;42.748;12.732;2022-11-12T04:05:53;99366.38;;;6.12;100.00
36242;BME280;22283;42.748;12.732;2022-11-12T04:11:31;99367.19;;;6.14;100.00
36242;BME280;22283;42.748;12.732;2022-11-12T04:16:50;99370.03;;;6.08;100.00
36242;BME280;22283;42.748;12.732;2022-11-12T04:22:28;99369.28;;;6.05;100.00
36242;BME280;22283;42.748;12.732;2022-11-12T04:27:47;99370.78;;;6.12;100.00
36242;BME280;22283;42.748;12.732;2022-11-12T04:33:07;99351.59;;;6.10;100.00
36242;BME280;22283;42.748;12.732;2022-11-12T04:38:25;99344.16;;;6.21;100.00
36242;BME280;22283;42.748;12.732;2022-11-12T04:43:45;99333.88;;;6.15;100.00
36242;BME280;22283;42.748;12.732;2022-11-12T04:49:22;99319.16;;;6.11;100.00
36242;BME280;22283;42.748;12.732;2022-11-12T04:54:42;99321.09;;;6.06;100.00
36242;BME280;22283;42.748;12.732;2022-11-12T05:00:02;99313.84;;;6.12;100.00
36242;BME280;22283;42.748;12.732;2022-11-12T05:05:22;99326.47;;;6.26;100.00
36242;BME280;22283;42.748;12.732;2022-11-12T05:10:43;99326.47;;;6.26;100.00
36242;BME280;22283;42.748;12.732;2022-11-12T05:16:02;99327.91;;;6.35;100.00
36242;BME280;22283;42.748;12.732;2022-11-12T05:21:21;99324.19;;;6.40;100.00
36242;BME280;22283;42.748;12.732;2022-11-12T05:27:00;99321.22;;;6.50;100.00
36242;BME280;22283;42.748;12.732;2022-11-12T05:32:19;99315.06;;;6.51;100.00
36242;BME280;22283;42.748;12.732;2022-11-12T05:37:38;99317.50;;;6.55;100.00
36242;BME280;22283;42.748;12.732;2022-11-12T05:42:57;99306.13;;;6.55;100.00
36242;BME280;22283;42.748;12.732;2022-11-12T05:48:16;99312.63;;;6.68;100.00
36242;BME280;22283;42.748;12.732;2022-11-12T05:53:35;99318.69;;;6.70;100.00
36242;BME280;22283;42.748;12.732;2022-11-12T05:58:54;99316.97;;;6.69;100.00
36242;BME280;22283;42.748;12.732;2022-11-12T06:04:15;99312.75;;;6.65;100.00
36242;BME280;22283;42.748;12.732;2022-11-12T06:09:34;99299.38;;;6.71;100.00
36242;BME280;22283;42.748;12.732;2022-11-12T06:14:53;99293.69;;;6.82;100.00
36242;BME280;22283;42.748;12.732;2022-11-12T06:20:12;99308.38;;;6.87;100.00
36242;BME280;22283;42.748;12.732;2022-11-12T06:25:33;99304.50;;;6.96;100.00
36242;BME280;22283;42.748;12.732;2022-11-12T06:30:52;99299.88;;;7.03;100.00
36242;BME280;22283;42.748;12.732;2022-11-12T06:36:13;99300.66;;;7.27;100.00
36242;BME280;22283;42.748;12.732;2022-11-12T06:41:33;99287.19;;;7.34;100.00
36242;BME280;22283;42.748;12.732;2022-11-12T06:46:52;99270.63;;;7.53;100.00
36242;BME280;22283;42.748;12.732;2022-11-12T06:52:13;99285.78;;;7.68;100.00
36242;BME280;22283;42.748;12.732;2022-11-12T06:57:34;99287.06;;;7.78;100.00
36242;BME280;22283;42.748;12.732;2022-11-12T07:02:53;99294.94;;;7.99;100.00
36242;BME280;22283;42.748;12.732;2022-11-12T07:08:12;99298.78;;;8.12;100.00
36242;BME280;22283;42.748;12.732;2022-11-12T07:13:32;99300.19;;;8.19;100.00
36242;BME280;22283;42.748;12.732;2022-11-12T07:18:52;99288.59;;;8.44;100.00
36242;BME280;22283;42.748;12.732;2022-11-12T07:24:12;99282.44;;;8.62;100.00
36242;BME280;22283;42.748;12.732;2022-11-12T07:29:31;99277.53;;;8.73;100.00
36242;BME280;22283;42.748;12.732;2022-11-12T07:34:50;99266.09;;;8.92;100.00
36242;BME280;22283;42.748;12.732;2022-11-12T07:40:09;99277.66;;;9.06;100.00
36242;BME280;22283;42.748;12.732;2022-11-12T07:45:28;99271.59;;;9.23;100.00
36242;BME280;22283;42.748;12.732;2022-11-12T07:50:47;99291.16;;;9.36;100.00
36242;BME280;22283;42.748;12.732;2022-11-12T07:56:06;99277.72;;;9.41;100.00
36242;BME280;22283;42.748;12.732;2022-11-12T08:01:39;99287.63;;;9.55;100.00
36242;BME280;22283;42.748;12.732;2022-11-12T08:06:58;99289.25;;;9.75;100.00
36242;BME280;22283;42.748;12.732;2022-11-12T08:12:18;99286.22;;;9.82;100.00
36242;BME280;22283;42.748;12.732;2022-11-12T08:17:37;99294.50;;;9.92;100.00
36242;BME280;22283;42.748;12.732;2022-11-12T08:22:59;99299.03;;;9.90;100.00
36242;BME280;22283;42.748;12.732;2022-11-12T08:28:18;99310.22;;;9.95;100.00
36242;BME280;22283;42.748;12.732;2022-11-12T08:33:37;99298.53;;;9.99;100.00
36242;BME280;22283;42.748;12.732;2022-11-12T08:38:56;99299.09;;;10.06;100.00
36242;BME280;22283;42.748;12.732;2022-11-12T08:44:15;99292.81;;;10.24;100.00
36242;BME280;22283;42.748;12.732;2022-11-12T08:49:34;99303.44;;;10.40;100.00
36242;BME280;22283;42.748;12.732;2022-11-12T08:54:53;99307.75;;;10.58;100.00
36242;BME280;22283;42.748;12.732;2022-11-12T09:00:13;99307.50;;;10.63;100.00
36242;BME280;22283;42.748;12.732;2022-11-12T09:05:35;99302.31;;;10.77;100.00
36242;BME280;22283;42.748;12.732;2022-11-12T09:10:56;99288.03;;;10.96;100.00
36242;BME280;22283;42.748;12.732;2022-11-12T09:16:15;99285.47;;;11.10;100.00
36242;BME280;22283;42.748;12.732;2022-11-12T09:21:36;99281.97;;;11.25;100.00
36242;BME280;22283;42.748;12.732;2022-11-12T09:26:55;99270.28;;;11.44;99.17
36242;BME280;22283;42.748;12.732;2022-11-12T09:32:15;99263.72;;;11.65;96.58
36242;BME280;22283;42.748;12.732;2022-11-12T09:37:36;99267.25;;;11.80;95.99
36242;BME280;22283;42.748;12.732;2022-11-12T09:42:55;99287.94;;;11.89;96.73
36242;BME280;22283;42.748;12.732;2022-11-12T09:48:24;99284.16;;;11.93;99.38
36242;BME280;22283;42.748;12.732;2022-11-12T09:59:13;99300.66;;;11.98;99.18
36242;BME280;22283;42.748;12.732;2022-11-12T10:10:05;99280.28;;;11.99;100.00
36242;BME280;22283;42.748;12.732;2022-11-12T10:27:20;99233.78;;;12.36;100.00
36242;BME280;22283;42.748;12.732;2022-11-12T10:32:42;99233.03;;;12.20;100.00
36242;BME280;22283;42.748;12.732;2022-11-12T10:38:11;99211.88;;;12.18;100.00
36242;BME280;22283;42.748;12.732;2022-11-12T10:43:32;99218.81;;;12.21;100.00
36242;BME280;22283;42.748;12.732;2022-11-12T10:49:00;99214.91;;;12.41;100.00
36242;BME280;22283;42.748;12.732;2022-11-12T10:54:34;99198.94;;;12.55;100.00
36242;BME280;22283;42.748;12.732;2022-11-12T11:00:14;99200.53;;;12.72;100.00
36242;BME280;22283;42.748;12.732;2022-11-12T11:05:45;99210.41;;;12.83;99.17
36242;BME280;22283;42.748;12.732;2022-11-12T11:16:48;99184.81;;;13.09;93.67
36242;BME280;22283;42.748;12.732;2022-11-12T11:22:22;99185.16;;;13.17;94.96
36242;BME280;22283;42.748;12.732;2022-11-12T11:33:42;99173.97;;;13.39;93.94
36242;BME280;22283;42.748;12.732;2022-11-12T11:50:33;99155.56;;;13.48;84.66
36242;BME280;22283;42.748;12.732;2022-11-12T11:56:01;99147.06;;;13.43;85.45
36242;BME280;22283;42.748;12.732;2022-11-12T12:07:26;99110.47;;;13.72;82.75
36242;BME280;22283;42.748;12.732;2022-11-12T12:24:21;99117.94;;;13.67;81.79
36242;BME280;22283;42.748;12.732;2022-11-12T12:29:46;99103.03;;;13.52;81.45
36242;BME280;22283;42.748;12.732;2022-11-12T12:35:37;99085.94;;;13.31;83.67
36242;BME280;22283;42.748;12.732;2022-11-12T12:41:38;99085.53;;;13.10;83.56
36242;BME280;22283;42.748;12.732;2022-11-12T12:46:55;99075.56;;;13.00;83.61
36242;BME280;22283;42.748;12.732;2022-11-12T12:52:15;99067.25;;;12.92;84.27
36242;BME280;22283;42.748;12.732;2022-11-12T12:57:38;99057.69;;;12.90;83.68
36242;BME280;22283;42.748;12.732;2022-11-12T13:02:58;99057.69;;;12.90;83.42
36242;BME280;22283;42.748;12.732;2022-11-12T13:08:22;99050.28;;;12.95;84.25
36242;BME280;22283;42.748;12.732;2022-11-12T13:13:42;99041.88;;;13.01;85.21
36242;BME280;22283;42.748;12.732;2022-11-12T13:19:01;99033.50;;;13.07;84.08
36242;BME280;22283;42.748;12.732;2022-11-12T13:35:40;99011.97;;;13.61;84.59
36242;BME280;22283;42.748;12.732;2022-11-12T13:41:17;99005.78;;;13.73;82.78
36242;BME280;22283;42.748;12.732;2022-11-12T13:46:57;99007.25;;;13.77;81.09
36242;BME280;22283;42.748;12.732;2022-11-12T13:52:17;99003.66;;;13.78;79.70
36242;BME280;22283;42.748;12.732;2022-11-12T13:57:37;98997.94;;;13.72;80.82
36242;BME280;22283;42.748;12.732;2022-11-12T14:03:01;99011.34;;;13.70;79.92
36242;BME280;22283;42.748;12.732;2022-11-12T14:08:34;99006.25;;;13.67;78.00
36242;BME280;22283;42.748;12.732;2022-11-12T14:25:51;98993.19;;;13.13;85.29
36242;BME280;22283;42.748;12.732;2022-11-12T14:31:12;98982.38;;;13.03;87.51
36242;BME280;22283;42.748;12.732;2022-11-12T14:36:32;98971.22;;;12.86;88.66
36242;BME280;22283;42.748;12.732;2022-11-12T14:41:52;98973.97;;;12.71;89.14
36242;BME280;22283;42.748;12.732;2022-11-12T14:47:16;98968.22;;;12.52;91.04
36242;BME280;22283;42.748;12.732;2022-11-12T14:52:40;98956.31;;;12.45;91.82
36242;BME280;22283;42.748;12.732;2022-11-12T14:58:02;98944.59;;;12.35;92.91
36242;BME280;22283;42.748;12.732;2022-11-12T15:03:25;98939.41;;;12.20;93.99
36242;BME280;22283;42.748;12.732;2022-11-12T15:08:56;98939.44;;;12.06;96.13
36242;BME280;22283;42.748;12.732;2022-11-12T15:14:23;98926.25;;;11.92;97.43
36242;BME280;22283;42.748;12.732;2022-11-12T15:19:43;98920.03;;;11.78;100.00
36242;BME280;22283;42.748;12.732;2022-11-12T15:25:30;98898.31;;;11.59;100.00
36242;BME280;22283;42.748;12.732;2022-11-12T15:31:14;98873.22;;;11.38;100.00
36242;BME280;22283;42.748;12.732;2022-11-12T15:36:33;98884.97;;;11.19;100.00
36242;BME280;22283;42.748;12.732;2022-11-12T15:42:05;98860.66;;;10.86;100.00
36242;BME280;22283;42.748;12.732;2022-11-12T15:47:31;98873.13;;;10.55;100.00
36242;BME280;22283;42.748;12.732;2022-11-12T15:52:51;98893.72;;;10.64;100.00
36242;BME280;22283;42.748;12.732;2022-11-12T15:58:14;98928.03;;;10.66;100.00
36242;BME280;22283;42.748;12.732;2022-11-12T16:03:35;98927.81;;;10.40;100.00
36242;BME280;22283;42.748;12.732;2022-11-12T16:08:54;98912.88;;;10.09;100.00
36242;BME280;22283;42.748;12.732;2022-11-12T16:14:13;98907.44;;;9.96;100.00
36242;BME280;22283;42.748;12.732;2022-11-12T16:19:33;98918.22;;;9.77;100.00
36242;BME280;22283;42.748;12.732;2022-11-12T16:24:52;98919.28;;;9.59;100.00
36242;BME280;22283;42.748;12.732;2022-11-12T16:30:20;98907.19;;;9.55;100.00
36242;BME280;22283;42.748;12.732;2022-11-12T16:35:40;98912.66;;;9.36;100.00
36242;BME280;22283;42.748;12.732;2022-11-12T16:40:59;98914.00;;;9.27;100.00
36242;BME280;22283;42.748;12.732;2022-11-12T16:46:28;98931.03;;;9.38;100.00
36242;BME280;22283;42.748;12.732;2022-11-12T16:51:48;98932.56;;;9.42;100.00
36242;BME280;22283;42.748;12.732;2022-11-12T16:57:09;98928.13;;;9.26;100.00
36242;BME280;22283;42.748;12.732;2022-11-12T17:02:29;98913.63;;;9.02;100.00
36242;BME280;22283;42.748;12.732;2022-11-12T17:07:53;98915.53;;;9.00;100.00
36242;BME280;22283;42.748;12.732;2022-11-12T17:13:13;98893.53;;;8.83;100.00
36242;BME280;22283;42.748;12.732;2022-11-12T17:18:33;98904.56;;;8.74;100.00
36242;BME280;22283;42.748;12.732;2022-11-12T17:23:53;98905.75;;;8.69;100.00
36242;BME280;22283;42.748;12.732;2022-11-12T17:29:13;98894.66;;;8.62;100.00
36242;BME280;22283;42.748;12.732;2022-11-12T17:34:33;98918.16;;;8.67;100.00
36242;BME280;22283;42.748;12.732;2022-11-12T17:39:52;98906.31;;;8.58;100.00
36242;BME280;22283;42.748;12.732;2022-11-12T17:45:11;98908.28;;;8.37;100.00
36242;BME280;22283;42.748;12.732;2022-11-12T17:50:30;98911.78;;;8.20;100.00
36242;BME280;22283;42.748;12.732;2022-11-12T17:55:55;98925.09;;;8.17;100.00
36242;BME280;22283;42.748;12.732;2022-11-12T18:01:33;98918.03;;;8.18;100.00
36242;BME280;22283;42.748;12.732;2022-11-12T18:06:52;98921.69;;;8.15;100.00
36242;BME280;22283;42.748;12.732;2022-11-12T18:12:12;98907.25;;;8.22;100.00
36242;BME280;22283;42.748;12.732;2022-11-12T18:17:32;98910.50;;;8.27;100.00
36242;BME280;22283;42.748;12.732;2022-11-12T18:22:51;98914.00;;;8.10;100.00
36242;BME280;22283;42.748;12.732;2022-11-12T18:28:11;98911.84;;;8.01;100.00
36242;BME280;22283;42.748;12.732;2022-11-12T18:33:30;98903.94;;;7.84;100.00
36242;BME280;22283;42.748;12.732;2022-11-12T18:38:51;98899.19;;;7.73;100.00
36242;BME280;22283;42.748;12.732;2022-11-12T18:44:10;98893.06;;;7.73;100.00
36242;BME280;22283;42.748;12.732;2022-11-12T18:49:30;98890.97;;;7.62;100.00
36242;BME280;22283;42.748;12.732;2022-11-12T18:54:49;98879.16;;;7.52;100.00
36242;BME280;22283;42.748;12.732;2022-11-12T19:00:09;98869.53;;;7.33;100.00
36242;BME280;22283;42.748;12.732;2022-11-12T19:05:28;98881.66;;;7.19;100.00
36242;BME280;22283;42.748;12.732;2022-11-12T19:10:48;98876.66;;;7.12;100.00
36242;BME280;22283;42.748;12.732;2022-11-12T19:16:12;98885.34;;;6.96;100.00
36242;BME280;22283;42.748;12.732;2022-11-12T19:21:33;98884.47;;;6.76;100.00
36242;BME280;22283;42.748;12.732;2022-11-12T19:26:52;98879.38;;;6.73;100.00
36242;BME280;22283;42.748;12.732;2022-11-12T19:32:11;98874.25;;;6.70;100.00
36242;BME280;22283;42.748;12.732;2022-11-12T19:37:31;98879.41;;;6.53;100.00
36242;BME280;22283;42.748;12.732;2022-11-12T19:42:51;98882.03;;;6.53;100.00
36242;BME280;22283;42.748;12.732;2022-11-12T19:48:10;98883.22;;;6.66;100.00
36242;BME280;22283;42.748;12.732;2022-11-12T19:53:33;98891.50;;;6.57;100.00
36242;BME280;22283;42.748;12.732;2022-11-12T19:58:52;98880.06;;;6.58;100.00
36242;BME280;22283;42.748;12.732;2022-11-12T20:04:13;98882.34;;;6.84;100.00
36242;BME280;22283;42.748;12.732;2022-11-12T20:09:32;98886.16;;;6.98;100.00
36242;BME280;22283;42.748;12.732;2022-11-12T20:14:51;98889.41;;;6.84;100.00
36242;BME280;22283;42.748;12.732;2022-11-12T20:20:10;98895.13;;;6.54;100.00
36242;BME280;22283;42.748;12.732;2022-11-12T20:25:29;98907.16;;;6.39;100.00
36242;BME280;22283;42.748;12.732;2022-11-12T20:30:48;98900.75;;;6.26;100.00
36242;BME280;22283;42.748;12.732;2022-11-12T20:36:16;98905.41;;;6.20;100.00
36242;BME280;22283;42.748;12.732;2022-11-12T20:41:36;98897.25;;;6.05;100.00
36242;BME280;22283;42.748;12.732;2022-11-12T20:46:55;98897.97;;;6.09;100.00
36242;BME280;22283;42.748;12.732;2022-11-12T20:52:15;98896.16;;;6.11;100.00
36242;BME280;22283;42.748;12.732;2022-11-12T20:57:33;98882.09;;;6.12;100.00
36242;BME280;22283;42.748;12.732;2022-11-12T21:02:53;98896.66;;;6.39;100.00
36242;BME280;22283;42.748;12.732;2022-11-12T21:08:12;98889.31;;;6.27;100.00
36242;BME280;22283;42.748;12.732;2022-11-12T21:13:33;98886.22;;;6.18;100.00
36242;BME280;22283;42.748;12.732;2022-11-12T21:18:53;98882.22;;;6.09;100.00
36242;BME280;22283;42.748;12.732;2022-11-12T21:24:12;98880.63;;;6.05;100.00
36242;BME280;22283;42.748;12.732;2022-11-12T21:29:31;98885.25;;;6.00;100.00
36242;BME280;22283;42.748;12.732;2022-11-12T21:34:50;98874.47;;;6.06;100.00
36242;BME280;22283;42.748;12.732;2022-11-12T21:40:10;98877.25;;;6.03;100.00
36242;BME280;22283;42.748;12.732;2022-11-12T21:45:29;98880.91;;;6.19;100.00
36242;BME280;22283;42.748;12.732;2022-11-12T21:50:48;98880.38;;;6.11;100.00
36242;BME280;22283;42.748;12.732;2022-11-12T21:56:17;98891.53;;;5.96;100.00
36242;BME280;22283;42.748;12.732;2022-11-12T22:01:36;98897.53;;;5.77;100.00
36242;BME280;22283;42.748;12.732;2022-11-12T22:06:55;98896.97;;;5.69;100.00
36242;BME280;22283;42.748;12.732;2022-11-12T22:12:15;98892.78;;;5.65;100.00
36242;BME280;22283;42.748;12.732;2022-11-12T22:17:34;98888.03;;;5.53;100.00
36242;BME280;22283;42.748;12.732;2022-11-12T22:22:53;98883.75;;;5.72;100.00
36242;BME280;22283;42.748;12.732;2022-11-12T22:28:13;98874.69;;;5.79;100.00
36242;BME280;22283;42.748;12.732;2022-11-12T22:33:32;98868.91;;;5.91;100.00
36242;BME280;22283;42.748;12.732;2022-11-12T22:38:52;98872.63;;;6.08;100.00
36242;BME280;22283;42.748;12.732;2022-11-12T22:44:12;98878.94;;;5.82;100.00
36242;BME280;22283;42.748;12.732;2022-11-12T22:49:31;98868.38;;;5.63;100.00
36242;BME280;22283;42.748;12.732;2022-11-12T22:54:50;98868.63;;;5.77;100.00
36242;BME280;22283;42.748;12.732;2022-11-12T23:00:10;98863.13;;;5.63;100.00
36242;BME280;22283;42.748;12.732;2022-11-12T23:05:29;98862.06;;;5.47;100.00
36242;BME280;22283;42.748;12.732;2022-11-12T23:10:48;98869.22;;;5.41;100.00
36242;BME280;22283;42.748;12.732;2022-11-12T23:16:13;98860.94;;;5.30;100.00
36242;BME280;22283;42.748;12.732;2022-11-12T23:21:33;98854.19;;;5.47;100.00
36242;BME280;22283;42.748;12.732;2022-11-12T23:26:52;98850.41;;;5.74;100.00
36242;BME280;22283;42.748;12.732;2022-11-12T23:32:11;98861.91;;;5.50;100.00
36242;BME280;22283;42.748;12.732;2022-11-12T23:37:30;98845.50;;;5.45;100.00
36242;BME280;22283;42.748;12.732;2022-11-12T23:42:49;98842.88;;;5.45;100.00
36242;BME280;22283;42.748;12.732;2022-11-12T23:48:09;98837.31;;;5.30;100.00
36242;BME280;22283;42.748;12.732;2022-11-12T23:53:29;98836.78;;;5.22;100.00
36242;BME280;22283;42.748;12.732;2022-11-12T23:58:52;98829.75;;;5.45;100.00
